Main page
METAR-TAF:

METAR-TAF

Airports :

Marshfield Municipal Airport

Marshfield, Wisconsin, United States

latitude: 44-38-17N, longitude: 090-11-15W, elevation: 1276 ft

Current weather observation

The report was made 41 minutes ago, at 20:54 UTC
Wind 10 mph from the West
Temperature 12°F
Humidity 40%
Pressure 30.59 in. Hg
Visibility: 10 miles
Clear sky

METAR: KMFI 202054Z AUTO 28009KT 10SM CLR M11/M22 A3059 RMK AO2 SLP395 T11061222 58021

Time: 15:35 (21:35 UTC)


TAF: missing

Weather observations and forecasts of more than 4000 airports (METAR and TAF reports).

The available stations are represented by yellow and red dots on the map.

Hover mouse over dot to see the name of the station.

Then click to see weather observations and forecasts.

To change the map : click on the green buttons with a black cross to zoom in, on the green button with a dash to zoom out, or on the green arrows for adjacent maps.


METAR-TAF: